CheckWX is a tool to help pilots better visualize weather data.  It is not intended as a substitute for an official pre-flight weather briefing.

13:05:05 UTC

LEVS TAF
Madrid / Cuatro Vientos Airport
Madrid Cuatro Vientos, Spain
TAF LEVS 241100Z 2412/2421 04010KT 9999 FEW040 TEMPO 2412/2418 03018G28KT PROB30 TEMPO 2412/2417 FEW045TCU

May-24@
12:00 UTC

May-24 @ 12:00 UTC

May-24@
21:00 UTC

May-24 @ 21:00 UTC

TAF LEVS 241100Z 2412/2421 04010KT 9999 FEW040
Wind
  • 040° at 10 KTS
Cloud Levels
  • Few at 4,000' AGL

May-24@
12:00 UTC

May-24 @ 12:00 UTC

May-24@
17:00 UTC

May-24 @ 17:00 UTC

PROB30 TEMPO 2412/2417 FEW045TCU

Temporary - 30% Likelihood

Temporary - 30% Likelihood during this time.

Cloud Levels
  • Few at 4,500' AGL

May-24@
12:00 UTC

May-24 @ 12:00 UTC

May-24@
18:00 UTC

May-24 @ 18:00 UTC

TEMPO 2412/2418 03018G28KT

Temporary

Temporary Changes expected for less than half the time period

Wind
  • 030° at 18 KTS
  • {Gusting to 28 KTS